sensor_id;sensor_type;location;lat;lon;timestamp;P1;durP1;ratioP1;P2;durP2;ratioP2
14776;SDS011;7480;43.124;25.686;2023-02-28T00:01:30;0.50;;;0.33;;
14776;SDS011;7480;43.124;25.686;2023-02-28T00:03:57;0.30;;;0.30;;
14776;SDS011;7480;43.124;25.686;2023-02-28T00:06:23;1.20;;;0.43;;
14776;SDS011;7480;43.124;25.686;2023-02-28T00:08:50;0.87;;;0.87;;
14776;SDS011;7480;43.124;25.686;2023-02-28T00:11:17;1.07;;;1.07;;
14776;SDS011;7480;43.124;25.686;2023-02-28T00:13:44;0.40;;;0.40;;
14776;SDS011;7480;43.124;25.686;2023-02-28T00:16:17;0.30;;;0.30;;
14776;SDS011;7480;43.124;25.686;2023-02-28T00:18:45;0.20;;;0.20;;
14776;SDS011;7480;43.124;25.686;2023-02-28T00:21:14;0.30;;;0.30;;
14776;SDS011;7480;43.124;25.686;2023-02-28T00:23:41;0.30;;;0.30;;
14776;SDS011;7480;43.124;25.686;2023-02-28T00:26:07;0.83;;;0.50;;
14776;SDS011;7480;43.124;25.686;2023-02-28T00:28:34;0.20;;;0.20;;
14776;SDS011;7480;43.124;25.686;2023-02-28T00:31:01;0.50;;;0.40;;
14776;SDS011;7480;43.124;25.686;2023-02-28T00:33:27;0.20;;;0.20;;
14776;SDS011;7480;43.124;25.686;2023-02-28T00:36:28;0.20;;;0.20;;
14776;SDS011;7480;43.124;25.686;2023-02-28T00:38:48;0.30;;;0.30;;
14776;SDS011;7480;43.124;25.686;2023-02-28T00:41:14;0.70;;;0.70;;
14776;SDS011;7480;43.124;25.686;2023-02-28T00:43:41;0.87;;;0.50;;
14776;SDS011;7480;43.124;25.686;2023-02-28T00:46:08;0.20;;;0.20;;
14776;SDS011;7480;43.124;25.686;2023-02-28T00:48:35;0.67;;;0.37;;
14776;SDS011;7480;43.124;25.686;2023-02-28T00:51:02;0.43;;;0.40;;
14776;SDS011;7480;43.124;25.686;2023-02-28T00:53:29;1.13;;;0.50;;
14776;SDS011;7480;43.124;25.686;2023-02-28T00:55:59;0.20;;;0.20;;
14776;SDS011;7480;43.124;25.686;2023-02-28T00:58:25;0.23;;;0.23;;
14776;SDS011;7480;43.124;25.686;2023-02-28T01:00:52;0.30;;;0.30;;
14776;SDS011;7480;43.124;25.686;2023-02-28T01:03:20;0.20;;;0.20;;
14776;SDS011;7480;43.124;25.686;2023-02-28T01:05:47;0.30;;;0.30;;
14776;SDS011;7480;43.124;25.686;2023-02-28T01:08:14;1.90;;;0.70;;
14776;SDS011;7480;43.124;25.686;2023-02-28T01:10:41;0.30;;;0.30;;
14776;SDS011;7480;43.124;25.686;2023-02-28T01:13:08;0.20;;;0.20;;
14776;SDS011;7480;43.124;25.686;2023-02-28T01:15:34;0.57;;;0.30;;
14776;SDS011;7480;43.124;25.686;2023-02-28T01:18:01;0.57;;;0.37;;
14776;SDS011;7480;43.124;25.686;2023-02-28T01:20:28;0.33;;;0.33;;
14776;SDS011;7480;43.124;25.686;2023-02-28T01:22:55;0.23;;;0.23;;
14776;SDS011;7480;43.124;25.686;2023-02-28T01:25:21;0.83;;;0.40;;
14776;SDS011;7480;43.124;25.686;2023-02-28T01:27:48;0.23;;;0.20;;
14776;SDS011;7480;43.124;25.686;2023-02-28T01:30:14;0.80;;;0.50;;
14776;SDS011;7480;43.124;25.686;2023-02-28T01:32:41;0.30;;;0.30;;
14776;SDS011;7480;43.124;25.686;2023-02-28T01:35:08;1.03;;;0.40;;
14776;SDS011;7480;43.124;25.686;2023-02-28T01:37:35;0.53;;;0.53;;
14776;SDS011;7480;43.124;25.686;2023-02-28T01:40:02;0.20;;;0.20;;
14776;SDS011;7480;43.124;25.686;2023-02-28T01:42:29;0.33;;;0.30;;
14776;SDS011;7480;43.124;25.686;2023-02-28T01:47:41;0.80;;;0.47;;
14776;SDS011;7480;43.124;25.686;2023-02-28T01:50:19;0.67;;;0.40;;
14776;SDS011;7480;43.124;25.686;2023-02-28T01:52:47;0.30;;;0.30;;
14776;SDS011;7480;43.124;25.686;2023-02-28T01:55:15;0.87;;;0.47;;
14776;SDS011;7480;43.124;25.686;2023-02-28T01:57:45;0.30;;;0.30;;
14776;SDS011;7480;43.124;25.686;2023-02-28T02:00:15;0.30;;;0.30;;
14776;SDS011;7480;43.124;25.686;2023-02-28T02:02:43;0.20;;;0.20;;
14776;SDS011;7480;43.124;25.686;2023-02-28T02:05:17;0.50;;;0.40;;
14776;SDS011;7480;43.124;25.686;2023-02-28T02:07:46;0.40;;;0.30;;
14776;SDS011;7480;43.124;25.686;2023-02-28T02:10:16;0.60;;;0.60;;
14776;SDS011;7480;43.124;25.686;2023-02-28T02:22:02;0.30;;;0.30;;
14776;SDS011;7480;43.124;25.686;2023-02-28T02:35:15;0.30;;;0.30;;
14776;SDS011;7480;43.124;25.686;2023-02-28T02:37:48;0.77;;;0.40;;
14776;SDS011;7480;43.124;25.686;2023-02-28T02:40:22;2.20;;;2.00;;
14776;SDS011;7480;43.124;25.686;2023-02-28T02:42:55;0.37;;;0.33;;
14776;SDS011;7480;43.124;25.686;2023-02-28T02:45:45;0.30;;;0.30;;
14776;SDS011;7480;43.124;25.686;2023-02-28T02:48:16;1.40;;;0.53;;
14776;SDS011;7480;43.124;25.686;2023-02-28T02:50:46;1.13;;;1.03;;
14776;SDS011;7480;43.124;25.686;2023-02-28T02:53:18;0.40;;;0.37;;
14776;SDS011;7480;43.124;25.686;2023-02-28T02:55:50;0.20;;;0.20;;
14776;SDS011;7480;43.124;25.686;2023-02-28T02:58:22;0.20;;;0.20;;
14776;SDS011;7480;43.124;25.686;2023-02-28T03:00:53;1.80;;;1.70;;
14776;SDS011;7480;43.124;25.686;2023-02-28T03:03:22;1.00;;;0.50;;
14776;SDS011;7480;43.124;25.686;2023-02-28T03:05:59;0.20;;;0.20;;
14776;SDS011;7480;43.124;25.686;2023-02-28T03:08:27;0.20;;;0.20;;
14776;SDS011;7480;43.124;25.686;2023-02-28T03:10:56;0.77;;;0.43;;
14776;SDS011;7480;43.124;25.686;2023-02-28T03:13:37;0.30;;;0.30;;
14776;SDS011;7480;43.124;25.686;2023-02-28T03:27:34;0.10;;;0.10;;
14776;SDS011;7480;43.124;25.686;2023-02-28T03:35:23;0.50;;;0.33;;
14776;SDS011;7480;43.124;25.686;2023-02-28T03:37:58;0.20;;;0.20;;
14776;SDS011;7480;43.124;25.686;2023-02-28T03:40:32;0.43;;;0.37;;
14776;SDS011;7480;43.124;25.686;2023-02-28T03:43:01;0.83;;;0.50;;
14776;SDS011;7480;43.124;25.686;2023-02-28T03:45:30;0.43;;;0.37;;
14776;SDS011;7480;43.124;25.686;2023-02-28T03:50:41;0.23;;;0.23;;
14776;SDS011;7480;43.124;25.686;2023-02-28T03:53:19;0.20;;;0.20;;
14776;SDS011;7480;43.124;25.686;2023-02-28T03:56:09;0.30;;;0.30;;
14776;SDS011;7480;43.124;25.686;2023-02-28T04:01:38;0.20;;;0.20;;
14776;SDS011;7480;43.124;25.686;2023-02-28T04:04:08;0.67;;;0.40;;
14776;SDS011;7480;43.124;25.686;2023-02-28T04:06:35;0.30;;;0.30;;
14776;SDS011;7480;43.124;25.686;2023-02-28T04:09:03;0.30;;;0.30;;
14776;SDS011;7480;43.124;25.686;2023-02-28T04:11:35;0.20;;;0.20;;
14776;SDS011;7480;43.124;25.686;2023-02-28T04:14:09;0.30;;;0.30;;
14776;SDS011;7480;43.124;25.686;2023-02-28T04:16:37;0.20;;;0.20;;
14776;SDS011;7480;43.124;25.686;2023-02-28T04:19:06;0.40;;;0.40;;
14776;SDS011;7480;43.124;25.686;2023-02-28T04:21:35;0.40;;;0.40;;
14776;SDS011;7480;43.124;25.686;2023-02-28T04:24:03;0.30;;;0.30;;
14776;SDS011;7480;43.124;25.686;2023-02-28T04:26:30;1.37;;;0.47;;
14776;SDS011;7480;43.124;25.686;2023-02-28T04:28:58;0.73;;;0.40;;
14776;SDS011;7480;43.124;25.686;2023-02-28T04:31:25;0.37;;;0.37;;
14776;SDS011;7480;43.124;25.686;2023-02-28T04:33:53;0.20;;;0.20;;
14776;SDS011;7480;43.124;25.686;2023-02-28T04:36:19;1.60;;;0.57;;
14776;SDS011;7480;43.124;25.686;2023-02-28T04:38:46;0.43;;;0.40;;
14776;SDS011;7480;43.124;25.686;2023-02-28T04:41:13;0.33;;;0.30;;
14776;SDS011;7480;43.124;25.686;2023-02-28T04:43:40;0.43;;;0.30;;
14776;SDS011;7480;43.124;25.686;2023-02-28T04:46:06;0.20;;;0.20;;
14776;SDS011;7480;43.124;25.686;2023-02-28T04:48:35;0.43;;;0.33;;
14776;SDS011;7480;43.124;25.686;2023-02-28T04:51:03;0.57;;;0.40;;
14776;SDS011;7480;43.124;25.686;2023-02-28T04:53:31;0.20;;;0.20;;
14776;SDS011;7480;43.124;25.686;2023-02-28T04:55:58;0.30;;;0.30;;
14776;SDS011;7480;43.124;25.686;2023-02-28T04:58:25;0.57;;;0.40;;
14776;SDS011;7480;43.124;25.686;2023-02-28T05:00:52;0.97;;;0.40;;
14776;SDS011;7480;43.124;25.686;2023-02-28T05:03:19;0.57;;;0.57;;
14776;SDS011;7480;43.124;25.686;2023-02-28T05:05:51;0.30;;;0.30;;
14776;SDS011;7480;43.124;25.686;2023-02-28T05:08:17;1.03;;;0.93;;
14776;SDS011;7480;43.124;25.686;2023-02-28T05:10:44;0.20;;;0.20;;
14776;SDS011;7480;43.124;25.686;2023-02-28T05:13:14;0.67;;;0.40;;
14776;SDS011;7480;43.124;25.686;2023-02-28T05:15:40;1.33;;;1.23;;
14776;SDS011;7480;43.124;25.686;2023-02-28T05:18:08;0.23;;;0.23;;
14776;SDS011;7480;43.124;25.686;2023-02-28T05:20:34;0.40;;;0.40;;
14776;SDS011;7480;43.124;25.686;2023-02-28T05:23:02;0.20;;;0.20;;
14776;SDS011;7480;43.124;25.686;2023-02-28T05:25:29;2.53;;;1.03;;
14776;SDS011;7480;43.124;25.686;2023-02-28T05:27:56;0.47;;;0.40;;
14776;SDS011;7480;43.124;25.686;2023-02-28T05:30:22;0.40;;;0.40;;
14776;SDS011;7480;43.124;25.686;2023-02-28T05:32:49;2.73;;;0.73;;
14776;SDS011;7480;43.124;25.686;2023-02-28T05:35:17;0.20;;;0.20;;
14776;SDS011;7480;43.124;25.686;2023-02-28T05:37:43;0.30;;;0.30;;
14776;SDS011;7480;43.124;25.686;2023-02-28T05:40:10;1.20;;;0.90;;
14776;SDS011;7480;43.124;25.686;2023-02-28T05:42:37;0.30;;;0.30;;
14776;SDS011;7480;43.124;25.686;2023-02-28T05:45:04;1.03;;;0.63;;
14776;SDS011;7480;43.124;25.686;2023-02-28T05:47:32;0.24;;;0.24;;
14776;SDS011;7480;43.124;25.686;2023-02-28T05:49:59;0.30;;;0.30;;
14776;SDS011;7480;43.124;25.686;2023-02-28T05:52:27;0.30;;;0.30;;
14776;SDS011;7480;43.124;25.686;2023-02-28T05:54:54;0.20;;;0.20;;
14776;SDS011;7480;43.124;25.686;2023-02-28T05:57:20;1.33;;;0.80;;
14776;SDS011;7480;43.124;25.686;2023-02-28T05:59:50;0.30;;;0.30;;
14776;SDS011;7480;43.124;25.686;2023-02-28T06:02:17;0.43;;;0.40;;
14776;SDS011;7480;43.124;25.686;2023-02-28T06:04:44;0.70;;;0.50;;
14776;SDS011;7480;43.124;25.686;2023-02-28T06:07:20;0.55;;;0.49;;
14776;SDS011;7480;43.124;25.686;2023-02-28T06:09:48;0.77;;;0.50;;
14776;SDS011;7480;43.124;25.686;2023-02-28T06:12:15;0.43;;;0.40;;
14776;SDS011;7480;43.124;25.686;2023-02-28T06:14:42;0.87;;;0.70;;
14776;SDS011;7480;43.124;25.686;2023-02-28T06:17:08;0.40;;;0.30;;
14776;SDS011;7480;43.124;25.686;2023-02-28T06:19:36;0.43;;;0.43;;
14776;SDS011;7480;43.124;25.686;2023-02-28T06:22:05;0.50;;;0.40;;
14776;SDS011;7480;43.124;25.686;2023-02-28T06:24:31;0.33;;;0.33;;
14776;SDS011;7480;43.124;25.686;2023-02-28T06:26:58;0.50;;;0.33;;
14776;SDS011;7480;43.124;25.686;2023-02-28T06:29:31;0.30;;;0.30;;
14776;SDS011;7480;43.124;25.686;2023-02-28T06:31:59;1.20;;;0.77;;
14776;SDS011;7480;43.124;25.686;2023-02-28T06:34:25;0.70;;;0.50;;
14776;SDS011;7480;43.124;25.686;2023-02-28T06:36:52;0.30;;;0.30;;
14776;SDS011;7480;43.124;25.686;2023-02-28T06:39:19;0.47;;;0.40;;
14776;SDS011;7480;43.124;25.686;2023-02-28T06:41:46;0.30;;;0.30;;
14776;SDS011;7480;43.124;25.686;2023-02-28T06:44:21;1.60;;;0.80;;
14776;SDS011;7480;43.124;25.686;2023-02-28T06:46:48;0.63;;;0.53;;
14776;SDS011;7480;43.124;25.686;2023-02-28T06:49:15;0.57;;;0.50;;
14776;SDS011;7480;43.124;25.686;2023-02-28T06:51:43;1.10;;;0.60;;
14776;SDS011;7480;43.124;25.686;2023-02-28T06:54:14;0.43;;;0.37;;
14776;SDS011;7480;43.124;25.686;2023-02-28T06:56:41;1.30;;;0.70;;
14776;SDS011;7480;43.124;25.686;2023-02-28T06:59:08;1.13;;;0.73;;
14776;SDS011;7480;43.124;25.686;2023-02-28T07:01:34;1.37;;;0.77;;
14776;SDS011;7480;43.124;25.686;2023-02-28T07:04:02;0.47;;;0.40;;
14776;SDS011;7480;43.124;25.686;2023-02-28T07:06:29;1.73;;;0.67;;
14776;SDS011;7480;43.124;25.686;2023-02-28T07:08:55;0.70;;;0.50;;
14776;SDS011;7480;43.124;25.686;2023-02-28T07:11:23;0.37;;;0.37;;
14776;SDS011;7480;43.124;25.686;2023-02-28T07:13:55;0.30;;;0.30;;
14776;SDS011;7480;43.124;25.686;2023-02-28T07:16:22;1.20;;;0.50;;
14776;SDS011;7480;43.124;25.686;2023-02-28T07:18:49;1.13;;;0.67;;
14776;SDS011;7480;43.124;25.686;2023-02-28T07:21:18;1.10;;;0.67;;
14776;SDS011;7480;43.124;25.686;2023-02-28T07:23:45;1.33;;;0.70;;
14776;SDS011;7480;43.124;25.686;2023-02-28T07:26:13;0.73;;;0.73;;
14776;SDS011;7480;43.124;25.686;2023-02-28T07:28:41;1.33;;;1.23;;
14776;SDS011;7480;43.124;25.686;2023-02-28T07:31:09;1.03;;;0.60;;
14776;SDS011;7480;43.124;25.686;2023-02-28T07:33:36;1.50;;;0.77;;
14776;SDS011;7480;43.124;25.686;2023-02-28T07:36:04;0.20;;;0.20;;
14776;SDS011;7480;43.124;25.686;2023-02-28T07:38:36;1.83;;;0.90;;
14776;SDS011;7480;43.124;25.686;2023-02-28T07:41:03;0.40;;;0.40;;
14776;SDS011;7480;43.124;25.686;2023-02-28T07:43:31;30.90;;;17.67;;
14776;SDS011;7480;43.124;25.686;2023-02-28T07:46:04;0.83;;;0.53;;
14776;SDS011;7480;43.124;25.686;2023-02-28T07:48:33;6.00;;;3.83;;
14776;SDS011;7480;43.124;25.686;2023-02-28T07:50:59;16.77;;;9.93;;
14776;SDS011;7480;43.124;25.686;2023-02-28T07:53:27;13.23;;;8.90;;
14776;SDS011;7480;43.124;25.686;2023-02-28T07:55:57;9.97;;;6.67;;
14776;SDS011;7480;43.124;25.686;2023-02-28T07:58:25;14.10;;;7.40;;
14776;SDS011;7480;43.124;25.686;2023-02-28T08:00:52;9.93;;;7.83;;
14776;SDS011;7480;43.124;25.686;2023-02-28T08:03:20;12.47;;;7.70;;
14776;SDS011;7480;43.124;25.686;2023-02-28T08:05:48;11.20;;;7.47;;
14776;SDS011;7480;43.124;25.686;2023-02-28T08:08:15;10.30;;;6.87;;
14776;SDS011;7480;43.124;25.686;2023-02-28T08:10:42;10.87;;;6.90;;
14776;SDS011;7480;43.124;25.686;2023-02-28T08:13:09;13.13;;;7.57;;
14776;SDS011;7480;43.124;25.686;2023-02-28T08:15:36;6.43;;;4.70;;
14776;SDS011;7480;43.124;25.686;2023-02-28T08:18:02;9.97;;;7.53;;
14776;SDS011;7480;43.124;25.686;2023-02-28T08:20:29;11.57;;;8.40;;
14776;SDS011;7480;43.124;25.686;2023-02-28T08:22:56;14.47;;;9.63;;
14776;SDS011;7480;43.124;25.686;2023-02-28T08:25:23;17.87;;;9.60;;
14776;SDS011;7480;43.124;25.686;2023-02-28T08:27:50;9.83;;;7.03;;
14776;SDS011;7480;43.124;25.686;2023-02-28T08:30:18;9.43;;;6.20;;
14776;SDS011;7480;43.124;25.686;2023-02-28T08:32:45;11.97;;;7.67;;
14776;SDS011;7480;43.124;25.686;2023-02-28T08:35:12;9.63;;;7.63;;
14776;SDS011;7480;43.124;25.686;2023-02-28T08:37:38;10.40;;;7.80;;
14776;SDS011;7480;43.124;25.686;2023-02-28T08:40:05;11.83;;;7.77;;
14776;SDS011;7480;43.124;25.686;2023-02-28T08:42:32;12.87;;;9.60;;
14776;SDS011;7480;43.124;25.686;2023-02-28T08:44:59;14.50;;;9.53;;
14776;SDS011;7480;43.124;25.686;2023-02-28T08:47:26;15.00;;;8.60;;
14776;SDS011;7480;43.124;25.686;2023-02-28T08:49:52;14.17;;;9.63;;
14776;SDS011;7480;43.124;25.686;2023-02-28T08:52:19;16.60;;;10.00;;
14776;SDS011;7480;43.124;25.686;2023-02-28T08:54:46;11.70;;;7.43;;
14776;SDS011;7480;43.124;25.686;2023-02-28T08:57:12;13.80;;;8.97;;
14776;SDS011;7480;43.124;25.686;2023-02-28T08:59:39;11.07;;;8.40;;
14776;SDS011;7480;43.124;25.686;2023-02-28T09:02:06;8.90;;;6.83;;
14776;SDS011;7480;43.124;25.686;2023-02-28T09:04:33;14.20;;;8.03;;
14776;SDS011;7480;43.124;25.686;2023-02-28T09:07:00;10.93;;;8.10;;
14776;SDS011;7480;43.124;25.686;2023-02-28T09:09:26;11.40;;;7.90;;
14776;SDS011;7480;43.124;25.686;2023-02-28T09:11:55;10.53;;;7.10;;
14776;SDS011;7480;43.124;25.686;2023-02-28T09:14:22;10.20;;;7.37;;
14776;SDS011;7480;43.124;25.686;2023-02-28T09:16:48;12.03;;;8.03;;
14776;SDS011;7480;43.124;25.686;2023-02-28T09:19:15;9.47;;;7.53;;
14776;SDS011;7480;43.124;25.686;2023-02-28T09:21:42;10.97;;;7.73;;
14776;SDS011;7480;43.124;25.686;2023-02-28T09:24:09;11.53;;;8.70;;
14776;SDS011;7480;43.124;25.686;2023-02-28T09:26:37;12.57;;;7.77;;
14776;SDS011;7480;43.124;25.686;2023-02-28T09:29:12;14.33;;;7.50;;
14776;SDS011;7480;43.124;25.686;2023-02-28T09:31:39;11.13;;;7.33;;
14776;SDS011;7480;43.124;25.686;2023-02-28T09:34:06;11.80;;;8.17;;
14776;SDS011;7480;43.124;25.686;2023-02-28T09:36:33;9.53;;;7.60;;
14776;SDS011;7480;43.124;25.686;2023-02-28T09:39:10;10.60;;;7.93;;
14776;SDS011;7480;43.124;25.686;2023-02-28T09:41:41;13.07;;;8.57;;
14776;SDS011;7480;43.124;25.686;2023-02-28T09:47:11;9.67;;;7.50;;
14776;SDS011;7480;43.124;25.686;2023-02-28T09:49:42;11.93;;;8.70;;
14776;SDS011;7480;43.124;25.686;2023-02-28T09:52:19;14.17;;;8.80;;
14776;SDS011;7480;43.124;25.686;2023-02-28T09:54:48;11.90;;;8.90;;
14776;SDS011;7480;43.124;25.686;2023-02-28T09:57:17;10.53;;;7.57;;
14776;SDS011;7480;43.124;25.686;2023-02-28T09:59:53;11.47;;;7.57;;
14776;SDS011;7480;43.124;25.686;2023-02-28T10:05:23;12.20;;;7.13;;
14776;SDS011;7480;43.124;25.686;2023-02-28T10:10:42;15.93;;;9.27;;
14776;SDS011;7480;43.124;25.686;2023-02-28T10:13:20;11.47;;;8.50;;
14776;SDS011;7480;43.124;25.686;2023-02-28T10:16:06;18.43;;;12.83;;
14776;SDS011;7480;43.124;25.686;2023-02-28T10:18:43;14.40;;;8.47;;
14776;SDS011;7480;43.124;25.686;2023-02-28T10:21:26;11.30;;;7.73;;
14776;SDS011;7480;43.124;25.686;2023-02-28T10:24:04;12.97;;;8.50;;
14776;SDS011;7480;43.124;25.686;2023-02-28T10:26:56;10.17;;;7.63;;
14776;SDS011;7480;43.124;25.686;2023-02-28T10:29:26;13.47;;;8.83;;
14776;SDS011;7480;43.124;25.686;2023-02-28T10:31:55;13.17;;;8.50;;
14776;SDS011;7480;43.124;25.686;2023-02-28T10:34:22;12.30;;;8.60;;
14776;SDS011;7480;43.124;25.686;2023-02-28T10:36:50;13.80;;;8.70;;
14776;SDS011;7480;43.124;25.686;2023-02-28T10:39:37;12.43;;;8.63;;
14776;SDS011;7480;43.124;25.686;2023-02-28T10:42:21;9.17;;;7.13;;
14776;SDS011;7480;43.124;25.686;2023-02-28T10:45:04;11.33;;;7.83;;
14776;SDS011;7480;43.124;25.686;2023-02-28T10:47:33;11.53;;;8.27;;
14776;SDS011;7480;43.124;25.686;2023-02-28T10:50:01;11.73;;;9.27;;
14776;SDS011;7480;43.124;25.686;2023-02-28T10:52:37;15.73;;;11.63;;
14776;SDS011;7480;43.124;25.686;2023-02-28T10:55:18;12.40;;;8.60;;
14776;SDS011;7480;43.124;25.686;2023-02-28T10:57:48;12.00;;;8.23;;
14776;SDS011;7480;43.124;25.686;2023-02-28T11:00:16;15.13;;;9.77;;
14776;SDS011;7480;43.124;25.686;2023-02-28T11:02:43;11.10;;;8.33;;
14776;SDS011;7480;43.124;25.686;2023-02-28T11:08:09;13.63;;;8.53;;
14776;SDS011;7480;43.124;25.686;2023-02-28T11:10:39;15.90;;;10.13;;
14776;SDS011;7480;43.124;25.686;2023-02-28T11:13:06;11.87;;;8.97;;
14776;SDS011;7480;43.124;25.686;2023-02-28T11:15:33;13.77;;;8.80;;
14776;SDS011;7480;43.124;25.686;2023-02-28T11:20:39;12.73;;;10.37;;
14776;SDS011;7480;43.124;25.686;2023-02-28T11:23:06;13.43;;;8.70;;
14776;SDS011;7480;43.124;25.686;2023-02-28T11:25:38;16.27;;;11.67;;
14776;SDS011;7480;43.124;25.686;2023-02-28T11:28:06;15.47;;;8.60;;
14776;SDS011;7480;43.124;25.686;2023-02-28T11:31:01;14.37;;;10.33;;
14776;SDS011;7480;43.124;25.686;2023-02-28T11:33:48;14.63;;;10.07;;
14776;SDS011;7480;43.124;25.686;2023-02-28T11:36:24;10.17;;;7.07;;
14776;SDS011;7480;43.124;25.686;2023-02-28T11:39:04;11.50;;;7.93;;
14776;SDS011;7480;43.124;25.686;2023-02-28T11:41:46;11.77;;;8.00;;
14776;SDS011;7480;43.124;25.686;2023-02-28T11:47:00;14.73;;;10.10;;
14776;SDS011;7480;43.124;25.686;2023-02-28T11:55:17;15.07;;;9.50;;
14776;SDS011;7480;43.124;25.686;2023-02-28T11:57:51;18.93;;;10.53;;
14776;SDS011;7480;43.124;25.686;2023-02-28T12:22:28;24.97;;;15.33;;
14776;SDS011;7480;43.124;25.686;2023-02-28T12:28:11;17.47;;;12.23;;
14776;SDS011;7480;43.124;25.686;2023-02-28T12:30:49;38.13;;;27.83;;
14776;SDS011;7480;43.124;25.686;2023-02-28T12:33:21;16.53;;;11.97;;
14776;SDS011;7480;43.124;25.686;2023-02-28T12:35:51;21.53;;;11.67;;
14776;SDS011;7480;43.124;25.686;2023-02-28T12:41:03;26.67;;;19.30;;
14776;SDS011;7480;43.124;25.686;2023-02-28T12:43:35;20.80;;;15.23;;
14776;SDS011;7480;43.124;25.686;2023-02-28T12:46:09;23.90;;;17.23;;
14776;SDS011;7480;43.124;25.686;2023-02-28T12:51:08;13.90;;;10.93;;
14776;SDS011;7480;43.124;25.686;2023-02-28T12:56:36;14.70;;;9.67;;
14776;SDS011;7480;43.124;25.686;2023-02-28T12:59:10;19.77;;;13.13;;
14776;SDS011;7480;43.124;25.686;2023-02-28T13:13:14;15.47;;;11.90;;
14776;SDS011;7480;43.124;25.686;2023-02-28T13:15:56;21.90;;;14.57;;
14776;SDS011;7480;43.124;25.686;2023-02-28T13:18:40;50.80;;;26.33;;
14776;SDS011;7480;43.124;25.686;2023-02-28T13:21:22;24.27;;;16.07;;
14776;SDS011;7480;43.124;25.686;2023-02-28T13:26:22;25.47;;;15.33;;
14776;SDS011;7480;43.124;25.686;2023-02-28T13:31:28;19.90;;;15.40;;
14776;SDS011;7480;43.124;25.686;2023-02-28T13:36:29;22.27;;;15.43;;
14776;SDS011;7480;43.124;25.686;2023-02-28T13:57:41;22.57;;;13.97;;
14776;SDS011;7480;43.124;25.686;2023-02-28T14:05:32;29.37;;;20.53;;
14776;SDS011;7480;43.124;25.686;2023-02-28T14:08:04;34.23;;;22.47;;
14776;SDS011;7480;43.124;25.686;2023-02-28T14:10:36;26.90;;;19.35;;
14776;SDS011;7480;43.124;25.686;2023-02-28T14:15:57;22.93;;;14.60;;
14776;SDS011;7480;43.124;25.686;2023-02-28T14:20:58;26.07;;;16.67;;
14776;SDS011;7480;43.124;25.686;2023-02-28T14:23:46;25.63;;;17.67;;
14776;SDS011;7480;43.124;25.686;2023-02-28T14:30:19;24.43;;;16.47;;
14776;SDS011;7480;43.124;25.686;2023-02-28T14:32:44;25.70;;;16.83;;
14776;SDS011;7480;43.124;25.686;2023-02-28T14:37:46;25.02;;;16.38;;
14776;SDS011;7480;43.124;25.686;2023-02-28T14:40:15;19.97;;;13.53;;
14776;SDS011;7480;43.124;25.686;2023-02-28T14:43:04;29.03;;;18.30;;
14776;SDS011;7480;43.124;25.686;2023-02-28T14:45:50;31.07;;;20.03;;
14776;SDS011;7480;43.124;25.686;2023-02-28T14:48:19;29.70;;;18.40;;
14776;SDS011;7480;43.124;25.686;2023-02-28T14:51:04;32.93;;;19.43;;
14776;SDS011;7480;43.124;25.686;2023-02-28T14:53:35;29.00;;;17.83;;
14776;SDS011;7480;43.124;25.686;2023-02-28T14:56:03;30.47;;;21.00;;
14776;SDS011;7480;43.124;25.686;2023-02-28T14:58:31;31.53;;;20.63;;
14776;SDS011;7480;43.124;25.686;2023-02-28T15:01:04;42.00;;;23.47;;
14776;SDS011;7480;43.124;25.686;2023-02-28T15:03:35;36.57;;;24.80;;
14776;SDS011;7480;43.124;25.686;2023-02-28T15:06:04;40.93;;;26.80;;
14776;SDS011;7480;43.124;25.686;2023-02-28T15:08:43;32.33;;;22.37;;
14776;SDS011;7480;43.124;25.686;2023-02-28T15:11:14;32.93;;;20.37;;
14776;SDS011;7480;43.124;25.686;2023-02-28T15:13:49;41.13;;;26.97;;
14776;SDS011;7480;43.124;25.686;2023-02-28T15:16:19;29.10;;;18.23;;
14776;SDS011;7480;43.124;25.686;2023-02-28T15:18:58;29.70;;;19.50;;
14776;SDS011;7480;43.124;25.686;2023-02-28T15:21:28;29.83;;;19.50;;
14776;SDS011;7480;43.124;25.686;2023-02-28T15:23:57;32.83;;;21.37;;
14776;SDS011;7480;43.124;25.686;2023-02-28T15:26:27;35.67;;;24.23;;
14776;SDS011;7480;43.124;25.686;2023-02-28T15:29:00;36.97;;;22.13;;
14776;SDS011;7480;43.124;25.686;2023-02-28T15:31:33;27.43;;;17.40;;
14776;SDS011;7480;43.124;25.686;2023-02-28T15:34:22;28.63;;;18.43;;
14776;SDS011;7480;43.124;25.686;2023-02-28T15:40:44;33.67;;;20.47;;
14776;SDS011;7480;43.124;25.686;2023-02-28T15:48:23;39.93;;;23.63;;
14776;SDS011;7480;43.124;25.686;2023-02-28T15:51:08;30.03;;;18.60;;
14776;SDS011;7480;43.124;25.686;2023-02-28T15:56:26;25.57;;;16.40;;
14776;SDS011;7480;43.124;25.686;2023-02-28T15:58:59;31.37;;;19.13;;
14776;SDS011;7480;43.124;25.686;2023-02-28T16:01:28;32.45;;;22.70;;
14776;SDS011;7480;43.124;25.686;2023-02-28T16:03:57;29.83;;;19.70;;
14776;SDS011;7480;43.124;25.686;2023-02-28T16:06:33;32.60;;;20.00;;
14776;SDS011;7480;43.124;25.686;2023-02-28T16:09:02;34.13;;;22.53;;
14776;SDS011;7480;43.124;25.686;2023-02-28T16:11:30;27.53;;;16.57;;
14776;SDS011;7480;43.124;25.686;2023-02-28T16:13:59;33.47;;;18.23;;
14776;SDS011;7480;43.124;25.686;2023-02-28T16:16:25;36.37;;;24.63;;
14776;SDS011;7480;43.124;25.686;2023-02-28T16:18:53;35.33;;;22.93;;
14776;SDS011;7480;43.124;25.686;2023-02-28T16:21:19;36.23;;;22.70;;
14776;SDS011;7480;43.124;25.686;2023-02-28T16:23:46;34.20;;;22.23;;
14776;SDS011;7480;43.124;25.686;2023-02-28T16:26:21;34.03;;;20.27;;
14776;SDS011;7480;43.124;25.686;2023-02-28T16:28:49;52.57;;;34.73;;
14776;SDS011;7480;43.124;25.686;2023-02-28T16:31:16;43.53;;;27.37;;
14776;SDS011;7480;43.124;25.686;2023-02-28T16:33:43;47.10;;;31.90;;
14776;SDS011;7480;43.124;25.686;2023-02-28T16:36:18;51.67;;;33.70;;
14776;SDS011;7480;43.124;25.686;2023-02-28T16:38:48;46.75;;;26.90;;
14776;SDS011;7480;43.124;25.686;2023-02-28T16:41:17;42.17;;;24.13;;
14776;SDS011;7480;43.124;25.686;2023-02-28T16:43:46;97.73;;;64.83;;
14776;SDS011;7480;43.124;25.686;2023-02-28T16:46:15;92.67;;;61.67;;
14776;SDS011;7480;43.124;25.686;2023-02-28T16:48:43;50.50;;;33.97;;
14776;SDS011;7480;43.124;25.686;2023-02-28T16:51:13;31.20;;;20.50;;
14776;SDS011;7480;43.124;25.686;2023-02-28T16:53:41;143.10;;;101.87;;
14776;SDS011;7480;43.124;25.686;2023-02-28T16:56:22;60.03;;;42.43;;
14776;SDS011;7480;43.124;25.686;2023-02-28T16:58:50;40.50;;;24.67;;
14776;SDS011;7480;43.124;25.686;2023-02-28T17:01:18;38.73;;;24.23;;
14776;SDS011;7480;43.124;25.686;2023-02-28T17:03:48;42.43;;;28.33;;
14776;SDS011;7480;43.124;25.686;2023-02-28T17:06:16;38.80;;;25.63;;
14776;SDS011;7480;43.124;25.686;2023-02-28T17:08:46;43.63;;;27.27;;
14776;SDS011;7480;43.124;25.686;2023-02-28T17:11:13;42.10;;;27.60;;
14776;SDS011;7480;43.124;25.686;2023-02-28T17:13:39;42.07;;;25.33;;
14776;SDS011;7480;43.124;25.686;2023-02-28T17:16:08;26.63;;;18.33;;
14776;SDS011;7480;43.124;25.686;2023-02-28T17:18:42;25.07;;;17.27;;
14776;SDS011;7480;43.124;25.686;2023-02-28T17:21:12;29.80;;;19.83;;
14776;SDS011;7480;43.124;25.686;2023-02-28T17:23:40;26.20;;;17.57;;
14776;SDS011;7480;43.124;25.686;2023-02-28T17:26:09;30.07;;;19.70;;
14776;SDS011;7480;43.124;25.686;2023-02-28T17:28:38;33.67;;;21.63;;
14776;SDS011;7480;43.124;25.686;2023-02-28T17:31:05;38.47;;;20.80;;
14776;SDS011;7480;43.124;25.686;2023-02-28T17:33:32;35.65;;;24.08;;
14776;SDS011;7480;43.124;25.686;2023-02-28T17:35:58;33.83;;;23.13;;
14776;SDS011;7480;43.124;25.686;2023-02-28T17:38:25;36.10;;;24.03;;
14776;SDS011;7480;43.124;25.686;2023-02-28T17:40:52;40.50;;;27.53;;
14776;SDS011;7480;43.124;25.686;2023-02-28T17:43:26;53.10;;;39.13;;